Latest Weather Observations for Parafield

IDS60901

Issued at 2:31 pm CST Tuesday 21 April 2015 (issued every 10 minutes, with the page automatically refreshed every 10 minutes)

About weather observations | Map of Adelaide area stations | Latest observations for Adelaide area | Other Formats
Station Details ID: 023013 Name: PARAFIELD AIRPORT Lat: -34.80 Lon: 138.63 Height: 9.5 m
Data from the previous 72 hours. | See also: Recent months at Parafield
Date/Time
CST
Tmp

°C
App
Tmp
°C
Dew
Point
°C
Rel
Hum
%
Delta-T

°C
Wind Press
QNH
hPa
Press
MSL
hPa
Rain
since
9 am
mm
Dir
 
Spd
km/h
Gust
km/h
Spd
kts
Gust
kts
21/02:30pm 17.9 13.2 5.2 43 6.1 S 19 28 10 15 1029.5 1029.4 0.0
21/02:00pm 17.5 13.1 4.8 43 6.1 SSE 17 26 9 14 1029.8 1029.7 0.0
21/01:30pm 17.7 13.3 5.0 43 6.0 SE 17 24 9 13 1030.2 1030.1 0.0
21/01:00pm 17.3 13.5 5.9 47 5.6 SE 15 24 8 13 1030.8 1030.7 0.0
21/12:30pm 17.2 13.0 5.8 47 5.5 ESE 17 28 9 15 1031.6 1031.5 0.0
21/12:00pm 16.7 12.7 6.5 51 5.0 ESE 17 28 9 15 1032.4 1032.3 0.0
21/11:30am 16.4 11.8 5.7 49 5.1 ESE 19 30 10 16 1033.2 1033.1 0.0
21/11:00am 16.6 12.2 6.7 52 4.9 ESE 19 28 10 15 1033.7 1033.6 0.0
21/10:30am 16.1 11.3 5.7 50 5.0 SE 20 28 11 15 1034.1 1034.0 0.0
21/10:00am 15.1 9.2 5.6 53 4.5 ESE 26 33 14 18 1034.2 1034.1 0.0
21/09:30am 14.9 9.8 6.0 55 4.2 ESE 22 32 12 17 1034.5 1034.4 0.0
21/09:00am 14.1 10.0 6.0 58 3.8 SE 17 24 9 13 1034.6 1034.5 0.0
21/08:30am 13.1 9.4 6.5 64 3.1 SE 15 20 8 11 1034.8 1034.7 0.0
21/08:00am 12.1 8.8 6.2 67 2.8 SSE 13 17 7 9 1034.7 1034.6 0.0
21/07:30am 11.0 7.7 6.2 72 2.2 SSE 13 19 7 10 1034.6 1034.5 0.0
21/07:00am 9.4 6.3 5.4 76 1.8 SSE 11 19 6 10 1034.4 1034.3 0.0
21/06:30am 9.5 6.3 5.3 75 1.9 SSE 11 15 6 8 1034.4 1034.3 0.0
21/06:00am 10.4 6.2 5.6 72 2.2 SE 17 24 9 13 1034.1 1034.0 0.0
21/05:30am 9.7 5.7 4.9 72 2.1 SE 15 20 8 11 1034.0 1033.9 0.0
21/05:00am 9.7 5.4 5.3 74 2.0 SE 17 20 9 11 1034.1 1034.0 0.0
21/04:30am 10.3 5.4 5.1 70 2.3 SE 20 28 11 15 1034.0 1033.9 0.0
21/04:00am 10.8 5.5 4.9 67 2.7 SE 22 30 12 16 1033.9 1033.8 0.0
21/03:30am 10.8 5.8 4.7 66 2.7 SE 20 30 11 16 1034.0 1033.9 0.0
21/03:00am 10.7 5.9 4.8 67 2.6 SE 19 26 10 14 1034.1 1034.0 0.0
21/02:30am 10.8 6.0 4.9 67 2.6 SE 19 26 10 14 1034.5 1034.4 0.0
21/02:00am 11.2 7.3 5.3 67 2.7 SE 15 26 8 14 1034.6 1034.5 0.0
21/01:30am 10.7 6.5 5.7 71 2.3 SE 17 24 9 13 1034.8 1034.7 0.0
21/01:00am 10.5 6.6 5.5 71 2.3 SE 15 24 8 13 1035.0 1034.9 0.0
21/12:30am 10.4 7.6 5.2 70 2.3 SE 9 13 5 7 1034.9 1034.8 0.0
21/12:00am 11.1 8.0 5.4 68 2.6 SSE 11 20 6 11 1035.2 1035.1 0.0
 
Date/Time
CST
Tmp

°C
App
Tmp
°C
Dew
Point
°C
Rel
Hum
%
Delta-T

°C
Wind Press
QNH
hPa
Press
MSL
hPa
Rain
since
9 am
mm
Dir
 
Spd
km/h
Gust
km/h
Spd
kts
Gust
kts
20/11:30pm 11.0 8.0 6.2 72 2.2 SSE 11 17 6 9 1035.4 1035.3 0.0
20/11:00pm 12.0 8.4 6.9 71 2.4 SSE 15 20 8 11 1035.5 1035.4 0.0
20/10:30pm 10.2 7.3 6.5 78 1.7 S 11 15 6 8 1035.8 1035.7 0.0
20/10:00pm 10.8 8.4 6.9 77 1.8 SW 9 13 5 7 1036.0 1035.9 0.0
20/09:30pm 10.6 7.8 6.9 78 1.7 SSW 11 13 6 7 1036.0 1035.9 0.0
20/09:00pm 10.2 7.4 6.9 80 1.5 S 11 15 6 8 1036.0 1035.9 0.0
20/08:30pm 11.1 7.9 6.8 75 2.0 S 13 19 7 10 1036.1 1036.0 0.0
20/08:00pm 11.5 8.2 6.6 72 2.3 SSE 13 19 7 10 1036.0 1035.9 0.0
20/07:30pm 11.8 7.9 6.9 72 2.3 S 17 22 9 12 1036.1 1036.0 0.0
20/07:00pm 12.3 9.0 6.4 67 2.8 S 13 20 7 11 1036.1 1036.0 0.0
20/06:30pm 12.4 8.6 6.0 65 3.0 SSE 15 20 8 11 1035.9 1035.8 0.0
20/06:00pm 13.6 7.6 5.5 58 3.8 SSE 26 33 14 18 1035.7 1035.6 0.0
20/05:30pm 14.1 9.2 4.9 54 4.2 SSE 20 26 11 14 1035.4 1035.3 0.0
20/05:00pm 14.9 9.2 5.1 52 4.6 S 24 32 13 17 1035.0 1034.9 0.0
20/04:30pm 15.6 9.6 5.2 50 4.9 SE 26 33 14 18 1034.9 1034.8 0.0
20/04:00pm 15.7 10.3 4.7 48 5.2 SSE 22 35 12 19 1035.1 1035.0 0.0
20/03:30pm 16.6 11.6 4.6 45 5.6 SE 20 26 11 14 1035.2 1035.1 0.0
20/03:00pm 16.1 10.2 3.9 44 5.6 SE 24 41 13 22 1035.3 1035.2 0.0
20/02:30pm 16.8 11.7 4.2 43 5.8 SE 20 28 11 15 1035.4 1035.3 0.0
20/02:00pm 16.5 11.4 3.9 43 5.9 SSE 20 30 11 16 1035.4 1035.3 0.0
20/01:30pm 16.0 11.1 1.7 38 6.2 SE 17 28 9 15 1035.7 1035.6 0.0
20/01:00pm 16.6 11.9 3.0 40 6.2 ESE 17 33 9 18 1036.2 1036.1 0.0
20/12:30pm 16.6 10.6 3.6 42 5.9 SE 24 32 13 17 1036.6 1036.5 0.0
20/12:00pm 15.5 10.5 1.3 38 6.1 ESE 17 26 9 14 1037.3 1037.2 0.0
20/11:30am 15.0 9.0 1.2 39 5.9 ESE 22 30 12 16 1038.0 1038.0 0.0
20/11:00am 15.2 10.0 3.4 45 5.4 SE 20 30 11 16 1038.4 1038.4 0.0
20/10:30am 14.6 8.8 2.5 44 5.3 SE 22 32 12 17 1038.8 1038.8 0.0
20/10:00am 14.3 9.8 2.2 44 5.3 SE 15 20 8 11 1039.0 1039.0 0.0
20/09:30am 13.0 10.2 2.0 47 4.7 NW 6 9 3 5 1039.1 1039.1 0.0
20/09:00am 11.4 9.0 2.4 54 3.8 SW 4 7 2 4 1039.2 1039.2 0.0
20/08:30am 10.9 8.8 1.7 53 3.8 SSE 2 7 1 4 1039.3 1039.3 0.0
20/08:00am 9.7 7.1 3.4 65 2.7 SSE 6 9 3 5 1039.2 1039.2 0.0
20/07:30am 6.1 3.3 3.4 83 1.1 ENE 7 9 4 5 1039.1 1039.1 0.0
20/07:00am 3.9 1.0 1.3 83 1.0 S 6 9 3 5 1038.6 1038.6 0.0
20/06:30am 3.8 1.6 1.0 82 1.1 E 2 6 1 3 1038.5 1038.5 0.0
20/06:00am 4.4 1.4 1.1 79 1.3 ESE 6 9 3 5 1038.4 1038.4 0.0
20/05:30am 4.3 1.3 1.0 79 1.3 WSW 6 9 3 5 1038.3 1038.3 0.0
20/05:00am 4.0 0.4 0.9 80 1.2 SE 9 11 5 6 1037.9 1037.9 0.0
20/04:30am 5.4 2.3 1.5 76 1.5 ESE 7 11 4 6 1037.8 1037.8 0.0
20/04:00am 6.1 2.6 1.2 71 1.9 ESE 9 11 5 6 1037.7 1037.7 0.0
20/03:30am 8.0 3.4 1.6 64 2.6 ESE 15 19 8 10 1037.5 1037.4 0.0
20/03:00am 7.8 3.6 1.6 65 2.5 ESE 13 17 7 9 1037.7 1037.7 0.0
20/02:30am 8.6 3.7 2.0 63 2.7 SE 17 20 9 11 1037.8 1037.8 0.0
20/02:00am 8.8 4.3 2.2 63 2.8 SE 15 20 8 11 1037.9 1037.9 0.0
20/01:30am 8.3 3.8 2.3 66 2.5 ESE 15 19 8 10 1037.8 1037.8 0.0
20/01:00am 8.4 4.0 2.6 67 2.4 ESE 15 20 8 11 1037.7 1037.7 0.0
20/12:30am 8.0 4.1 3.3 72 2.0 ESE 13 17 7 9 1037.6 1037.5 0.0
20/12:00am 7.1 4.1 3.9 80 1.4 SE 9 17 5 9 1037.5 1037.4 0.0
 
Date/Time
CST
Tmp

°C
App
Tmp
°C
Dew
Point
°C
Rel
Hum
%
Delta-T

°C
Wind Press
QNH
hPa
Press
MSL
hPa
Rain
since
9 am
mm
Dir
 
Spd
km/h
Gust
km/h
Spd
kts
Gust
kts
19/11:30pm 7.3 5.9 5.3 87 0.9 NNE 2 9 1 5 1037.8 1037.8 0.0
19/11:00pm 7.0 5.8 4.8 86 1.0 CALM 0 0 0 0 1037.8 1037.8 0.0
19/10:30pm 7.2 4.6 4.3 82 1.2 ESE 7 9 4 5 1037.7 1037.7 0.0
19/10:00pm 8.1 5.2 4.5 78 1.6 SSE 9 11 5 6 1037.6 1037.5 0.0
19/09:30pm 7.9 4.6 4.3 78 1.5 SSE 11 15 6 8 1037.3 1037.2 0.0
19/09:00pm 8.6 6.1 4.6 76 1.7 SSE 7 9 4 5 1037.2 1037.1 0.0
19/08:30pm 10.4 7.5 4.8 68 2.5 SSE 9 9 5 5 1036.7 1036.6 0.0
19/08:00pm 10.3 7.4 4.7 68 2.5 SSE 9 15 5 8 1036.5 1036.4 0.0
19/07:30pm 10.2 6.9 4.6 68 2.5 S 11 17 6 9 1036.2 1036.1 0.0
19/07:00pm 11.5 7.5 4.7 63 3.1 SSE 15 20 8 11 1035.8 1035.7 0.0
19/06:30pm 11.6 7.6 5.0 64 3.0 SSE 15 20 8 11 1035.3 1035.2 0.0
19/06:00pm 12.4 7.5 5.1 61 3.3 SSE 20 28 11 15 1035.0 1034.9 0.0
19/05:30pm 13.3 8.3 4.7 56 3.9 SSE 20 28 11 15 1034.4 1034.3 0.0
19/05:00pm 14.7 9.7 4.7 51 4.7 SSE 20 30 11 16 1034.0 1033.9 0.0
19/04:30pm 15.0 9.4 3.2 45 5.3 SSE 22 32 12 17 1033.8 1033.7 0.0
19/04:00pm 15.8 9.0 3.3 43 5.7 SSE 28 44 15 24 1033.6 1033.5 0.0
19/03:30pm 15.8 9.3 2.9 42 5.8 SSE 26 37 14 20 1033.4 1033.3 0.0
19/03:00pm 16.8 11.8 4.8 45 5.6 SSE 20 28 11 15 1033.3 1033.2 0.0
19/02:30pm 16.0 10.3 5.0 48 5.2 SE 24 33 13 18 1033.1 1033.0 0.0
19/02:00pm 16.3 11.6 5.9 50 5.0 SE 20 32 11 17 1032.9 1032.8 0.0
19/01:30pm 15.1 10.5 6.4 56 4.2 SSE 20 28 11 15 1033.1 1033.0 0.0
19/01:00pm 13.6 7.9 6.5 62 3.4 SE 26 46 14 25 1033.2 1033.1 0.0
19/12:59pm 13.8 8.4 6.4 61 3.5 SE 24 46 13 25 1033.2 1033.1 0.0
19/12:30pm 15.7 11.1 5.6 51 4.8 SE 19 28 10 15 1033.3 1033.2 0.0
19/12:00pm 14.7 9.5 5.5 54 4.3 SE 22 30 12 16 1033.6 1033.5 0.0
19/11:30am 13.7 8.7 6.6 62 3.4 SE 22 32 12 17 1033.8 1033.7 0.0
19/11:00am 12.8 6.9 7.3 69 2.7 SSE 28 39 15 21 1033.6 1033.5 0.0
19/10:53am 12.7 8.3 7.4 70 2.6 SSE 20 39 11 21 1033.6 1033.5 0.0
19/10:30am 14.8 11.1 6.4 57 4.0 SE 15 22 8 12 1033.2 1033.1 0.0
19/10:00am 14.1 9.0 6.2 59 3.8 SSE 22 32 12 17 1033.2 1033.1 0.0
19/09:30am 14.2 9.7 6.8 61 3.6 SSE 20 30 11 16 1033.1 1033.0 0.0
19/09:00am 12.7 10.7 7.0 68 2.7 SSW 7 9 4 5 1032.8 1032.7 4.0
19/08:30am 10.9 9.9 7.2 78 1.7 WSW 2 6 1 3 1032.2 1032.1 4.0
19/08:00am 10.0 8.4 7.8 86 1.1 NE 6 7 3 4 1031.5 1031.4 4.0
19/07:30am 7.9 5.8 6.7 92 0.5 ENE 7 9 4 5 1030.7 1030.6 4.0
19/07:00am 6.2 4.7 5.0 92 0.5 WSW 2 7 1 4 1030.1 1030.0 4.0
19/06:30am 6.4 5.3 5.2 92 0.5 CALM 0 0 0 0 1029.5 1029.4 4.0
19/06:00am 6.5 4.3 5.1 91 0.6 E 6 9 3 5 1029.1 1029.0 4.0
19/05:30am 7.2 6.2 5.7 90 0.7 CALM 0 6 0 3 1028.6 1028.5 4.0
19/05:00am 7.6 6.7 5.9 89 0.8 CALM 0 0 0 0 1028.0 1027.9 4.0
19/04:30am 7.6 6.8 6.4 92 0.5 CALM 0 0 0 0 1027.6 1027.5 4.0
19/04:00am 7.4 5.4 6.2 92 0.5 ESE 6 7 3 4 1027.1 1027.0 4.0
19/03:30am 7.5 6.7 6.4 93 0.5 CALM 0 0 0 0 1026.8 1026.7 4.0
19/03:00am 7.5 6.7 6.3 92 0.5 CALM 0 4 0 2 1026.6 1026.5 4.0
19/02:30am 7.9 6.3 6.4 90 0.7 SSE 4 7 2 4 1026.4 1026.3 4.0
19/02:00am 8.6 7.1 6.6 87 0.9 S 4 6 2 3 1026.4 1026.3 4.0
19/01:30am 9.3 7.4 6.7 84 1.2 S 6 6 3 3 1026.2 1026.1 4.0
19/01:00am 9.2 7.1 6.5 83 1.3 S 7 9 4 5 1025.9 1025.8 4.0
19/12:30am 9.5 6.7 6.8 83 1.3 SSW 11 13 6 7 1025.6 1025.5 4.0
19/12:00am 9.4 7.7 7.5 88 0.9 SSE 6 9 3 5 1025.4 1025.3 4.0
 
Date/Time
CST
Tmp

°C
App
Tmp
°C
Dew
Point
°C
Rel
Hum
%
Delta-T

°C
Wind Press
QNH
hPa
Press
MSL
hPa
Rain
since
9 am
mm
Dir
 
Spd
km/h
Gust
km/h
Spd
kts
Gust
kts
18/11:30pm 9.8 7.8 7.1 83 1.3 SSW 7 7 4 4 1025.1 1025.0 4.0
18/11:00pm 10.3 8.0 7.5 83 1.3 SSW 9 11 5 6 1025.0 1024.9 4.0
18/10:30pm 11.4 8.1 8.1 80 1.6 S 15 19 8 10 1024.7 1024.6 4.0
18/10:00pm 12.3 8.8 8.8 79 1.7 S 17 30 9 16 1024.4 1024.3 4.0
18/09:30pm 12.6 10.0 9.2 80 1.7 S 13 19 7 10 1023.9 1023.8 4.0
18/09:00pm 12.3 9.7 9.3 82 1.5 SSE 13 17 7 9 1023.2 1023.1 4.0
18/08:30pm 11.9 9.2 8.9 82 1.5 S 13 17 7 9 1022.7 1022.6 4.0
18/08:00pm 13.1 10.6 9.7 80 1.7 S 13 15 7 8 1022.1 1022.0 4.0
18/07:30pm 13.4 10.5 9.8 79 1.8 S 15 20 8 11 1021.5 1021.5 4.0
18/07:00pm 13.4 10.2 9.8 79 1.8 S 17 20 9 11 1020.9 1020.9 4.0
18/06:30pm 13.2 9.8 11.3 88 1.0 S 20 26 11 14 1020.2 1020.2 4.0
18/06:18pm 13.2 10.0 11.8 91 0.7 S 20 30 11 16 1020.0 1020.0 4.0
18/06:07pm 13.2 10.0 11.8 91 0.7 S 20 28 11 15 1020.0 1020.0 4.0
18/06:00pm 13.4 10.7 11.8 90 0.9 SSW 17 24 9 13 1019.9 1019.9 3.8
18/05:30pm 13.3 10.1 11.9 91 0.7 SSW 20 30 11 16 1019.1 1019.1 3.8
18/05:00pm 13.9 9.2 11.9 88 1.1 SSW 28 35 15 19 1018.6 1018.6 3.4
18/04:52pm 13.9 8.5 12.3 90 0.9 SSW 32 46 17 25 1018.5 1018.5 3.4
18/04:50pm 13.9 8.5 12.3 90 0.9 SSW 32 46 17 25 1018.5 1018.5 3.4
18/04:30pm 14.1 8.0 13.0 93 0.6 SSW 37 50 20 27 1017.7 1017.7 3.2
18/04:13pm 15.3 12.1 14.2 93 0.6 SW 24 33 13 18 1017.3 1017.3 3.0
18/04:10pm 15.3 11.7 14.2 93 0.6 SSW 26 33 14 18 1017.3 1017.3 2.8
18/04:02pm 15.2 11.1 13.9 92 0.7 SSW 28 37 15 20 1017.1 1017.1 2.2
18/04:00pm 15.2 11.1 13.9 92 0.7 SSW 28 37 15 20 1017.1 1017.1 2.2
18/03:47pm 15.6 10.7 14.3 92 0.7 WSW 33 48 18 26 1016.8 1016.8 2.2
18/03:42pm 16.3 11.9 14.1 87 1.2 W 30 48 16 26 1016.8 1016.8 1.8
18/03:40pm 18.4 14.3 13.9 75 2.6 WNW 28 46 15 25 1016.7 1016.7 0.0
18/03:30pm 18.7 14.1 13.6 72 2.9 WNW 30 39 16 21 1016.5 1016.5 0.0
18/03:00pm 18.6 13.8 13.0 70 3.1 WNW 30 41 16 22 1016.6 1016.6 0.0

Latest Capital City Observations: Canberra | Sydney | Melbourne | Brisbane | Adelaide | Perth | Hobart | Darwin

Other Formats:

Comma delimited format used in spreadsheet applications
http://www.bom.gov.au/fwo/IDS60901/IDS60901.95677.axf

JavaScript Object Notation format (JSON) in row-major order
http://www.bom.gov.au/fwo/IDS60901/IDS60901.95677.json